createdAt,value
2022-09-27T00:02:15.555Z,21.31
2022-09-27T00:07:08.024Z,21.3
2022-09-27T00:12:00.522Z,21.32
2022-09-27T00:16:53.098Z,21.31
2022-09-27T00:21:45.639Z,21.3
2022-09-27T00:26:38.192Z,21.28
2022-09-27T00:31:32.862Z,21.27
2022-09-27T00:36:24.830Z,21.28
2022-09-27T00:41:17.228Z,21.28
2022-09-27T00:46:09.096Z,21.28
2022-09-27T00:51:01.676Z,21.23
2022-09-27T00:55:53.982Z,21.28
2022-09-27T01:00:46.292Z,21.24
2022-09-27T01:05:38.980Z,21.22
2022-09-27T01:10:31.368Z,21.21
2022-09-27T01:15:23.999Z,21.21
2022-09-27T01:20:17.849Z,21.2
2022-09-27T01:25:10.070Z,21.21
2022-09-27T01:30:02.153Z,21.24
2022-09-27T01:34:54.968Z,21.23
2022-09-27T01:39:47.202Z,21.17
2022-09-27T01:44:39.556Z,21.18
2022-09-27T01:49:31.992Z,21.17
2022-09-27T01:54:24.503Z,21.19
2022-09-27T01:59:16.989Z,21.12
2022-09-27T02:18:42.984Z,21.13
2022-09-27T02:23:35.327Z,21.1
2022-09-27T02:28:27.800Z,21.1
2022-09-27T02:33:20.014Z,21.09
2022-09-27T02:38:12.549Z,21.09
2022-09-27T02:43:05.065Z,21.1
2022-09-27T02:47:57.443Z,21.08
2022-09-27T02:52:49.673Z,21.02
2022-09-27T02:57:42.324Z,20.99
2022-09-27T03:02:34.922Z,21
2022-09-27T03:07:27.206Z,20.99
2022-09-27T03:12:19.857Z,20.98
2022-09-27T03:17:12.440Z,20.98
2022-09-27T03:22:04.828Z,20.97
2022-09-27T03:26:57.357Z,20.98
2022-09-27T03:36:37.599Z,20.98
2022-09-27T03:41:31.223Z,20.96
2022-09-27T03:46:23.668Z,20.94
2022-09-27T03:51:16.042Z,20.93
2022-09-27T03:56:08.496Z,20.94
2022-09-27T04:01:00.803Z,20.93
2022-09-27T04:05:53.320Z,20.91
2022-09-27T04:10:45.880Z,20.95
2022-09-27T04:15:38.519Z,20.93
2022-09-27T04:20:30.821Z,20.99
2022-09-27T04:25:23.487Z,20.96
2022-09-27T04:30:15.986Z,20.97
2022-09-27T04:35:08.318Z,20.95
2022-09-27T04:40:00.884Z,20.97
2022-09-27T04:44:53.274Z,21.1
2022-09-27T04:49:45.497Z,21.2
2022-09-27T04:54:38.043Z,21.17
2022-09-27T04:59:30.438Z,21.11
2022-09-27T05:04:23.078Z,21.25
2022-09-27T05:09:15.740Z,21.53
2022-09-27T05:14:08.263Z,21.34
2022-09-27T05:19:00.824Z,21.57
2022-09-27T05:23:52.840Z,21.42
2022-09-27T05:28:45.203Z,21.46
2022-09-27T05:33:37.607Z,21.48
2022-09-27T05:38:29.828Z,21.43
2022-09-27T05:43:22.366Z,21.48
2022-09-27T05:48:14.827Z,21.45
2022-09-27T05:53:07.058Z,21.4
2022-09-27T05:57:59.672Z,21.37
2022-09-27T06:02:52.117Z,21.36
2022-09-27T06:07:44.392Z,21.33
2022-09-27T06:12:36.782Z,21.31
2022-09-27T06:17:29.263Z,21.29
2022-09-27T06:22:21.641Z,21.26
2022-09-27T06:27:14.142Z,21.24
2022-09-27T06:32:06.862Z,21.2
2022-09-27T06:36:59.324Z,21.18
2022-09-27T06:41:51.675Z,21.17
2022-09-27T06:46:44.071Z,21.17
2022-09-27T06:51:36.846Z,21.14
2022-09-27T06:56:29.340Z,21.18
2022-09-27T07:01:22.039Z,21.2
2022-09-27T07:06:14.407Z,21.16
2022-09-27T07:11:06.907Z,21.2
2022-09-27T07:15:59.427Z,21.2
2022-09-27T07:20:51.797Z,21.19
2022-09-27T07:25:44.780Z,21.24
2022-09-27T07:30:36.901Z,21.24
2022-09-27T07:35:29.026Z,21.27
2022-09-27T07:40:21.473Z,21.33
2022-09-27T07:45:13.966Z,21.39
2022-09-27T07:50:06.618Z,21.41
2022-09-27T07:54:58.818Z,21.53
2022-09-27T07:59:51.145Z,21.49
2022-09-27T08:04:43.652Z,21.45
2022-09-27T08:09:36.373Z,21.49
2022-09-27T08:14:28.773Z,21.5
2022-09-27T08:24:13.346Z,21.5
2022-09-27T08:33:58.113Z,21.62
2022-09-27T08:43:43.191Z,21.67
2022-09-27T08:48:35.918Z,21.8
2022-09-27T08:53:27.893Z,21.87
2022-09-27T08:58:20.038Z,21.94
2022-09-27T09:03:12.316Z,21.86
2022-09-27T09:08:04.697Z,21.76
2022-09-27T09:12:56.997Z,21.78
2022-09-27T09:17:49.460Z,21.76
2022-09-27T09:22:41.998Z,21.71
2022-09-27T09:27:34.586Z,21.73
2022-09-27T09:32:26.854Z,21.68
2022-09-27T09:37:19.126Z,21.68
2022-09-27T09:42:11.318Z,21.63
2022-09-27T09:47:03.848Z,21.6
2022-09-27T09:51:56.325Z,21.58
2022-09-27T09:56:48.626Z,21.53
2022-09-27T10:01:41.471Z,21.48
2022-09-27T10:06:33.888Z,21.46
2022-09-27T10:11:26.148Z,21.42
2022-09-27T10:16:18.635Z,21.4
2022-09-27T10:21:11.111Z,21.35
2022-09-27T10:26:03.532Z,21.35
2022-09-27T10:30:55.901Z,21.36
2022-09-27T10:35:48.165Z,21.32
2022-09-27T10:40:41.048Z,21.31
2022-09-27T10:45:33.630Z,21.33
2022-09-27T10:50:46.394Z,21.34
2022-09-27T10:55:18.512Z,21.31
2022-09-27T11:00:10.905Z,21.34
2022-09-27T11:05:03.327Z,21.38
2022-09-27T11:09:55.785Z,21.37
2022-09-27T11:14:48.250Z,21.35
2022-09-27T11:19:40.592Z,21.36
2022-09-27T11:24:32.931Z,21.35
2022-09-27T11:29:26.114Z,21.31
2022-09-27T11:34:18.842Z,21.3
2022-09-27T11:39:11.339Z,21.3
2022-09-27T11:44:03.596Z,21.24
2022-09-27T11:48:55.966Z,21.3
2022-09-27T11:53:48.502Z,21.29
2022-09-27T11:58:40.880Z,21.3
2022-09-27T12:03:33.587Z,21.3
2022-09-27T12:08:26.079Z,21.33
2022-09-27T12:13:18.583Z,21.33
2022-09-27T12:18:11.226Z,21.34
2022-09-27T12:23:03.502Z,21.35
2022-09-27T12:27:55.732Z,21.32
2022-09-27T12:32:48.292Z,21.33
2022-09-27T12:37:40.922Z,21.38
2022-09-27T12:42:33.435Z,21.42
2022-09-27T12:47:25.834Z,21.46
2022-09-27T12:52:17.882Z,21.47
2022-09-27T12:57:12.638Z,21.49
2022-09-27T13:02:03.182Z,21.5
2022-09-27T13:06:55.831Z,21.47
2022-09-27T13:11:48.367Z,21.47
2022-09-27T13:16:40.811Z,21.47
2022-09-27T13:21:33.297Z,21.55
2022-09-27T13:26:25.869Z,21.57
2022-09-27T13:31:18.458Z,21.55
2022-09-27T13:36:10.820Z,21.57
2022-09-27T13:41:03.250Z,21.56
2022-09-27T13:45:55.646Z,21.54
2022-09-27T13:50:48.187Z,21.55
2022-09-27T13:55:40.576Z,21.55
2022-09-27T14:00:32.834Z,21.55
2022-09-27T14:05:25.297Z,21.56
2022-09-27T14:10:18.220Z,21.55
2022-09-27T14:15:10.821Z,21.57
2022-09-27T14:20:03.355Z,21.57
2022-09-27T14:24:55.776Z,21.58
2022-09-27T14:29:48.348Z,21.59
2022-09-27T14:34:40.808Z,21.56
2022-09-27T14:39:33.041Z,21.58
2022-09-27T14:44:28.195Z,21.58
2022-09-27T14:49:18.072Z,21.58
2022-09-27T14:54:10.426Z,21.59
2022-09-27T14:59:02.846Z,21.59
2022-09-27T15:03:55.460Z,21.59
2022-09-27T15:08:47.856Z,21.63
2022-09-27T15:13:40.314Z,21.62
2022-09-27T15:18:32.834Z,21.63
2022-09-27T15:23:25.459Z,21.6
2022-09-27T15:28:17.876Z,21.63
2022-09-27T15:33:10.271Z,21.62
2022-09-27T15:38:02.982Z,21.58
2022-09-27T15:42:55.530Z,21.61
2022-09-27T15:47:47.865Z,21.67
2022-09-27T15:52:40.662Z,21.66
2022-09-27T15:57:33.350Z,21.65
2022-09-27T16:02:25.692Z,21.75
2022-09-27T16:07:18.353Z,21.81
2022-09-27T16:12:11.204Z,21.82
2022-09-27T16:17:03.563Z,21.93
2022-09-27T16:21:55.922Z,22
2022-09-27T16:26:48.732Z,22.01
2022-09-27T16:31:41.123Z,22
2022-09-27T16:36:33.434Z,22.07
2022-09-27T16:41:25.894Z,22.25
2022-09-27T16:46:18.858Z,22.19
2022-09-27T16:51:11.286Z,22.34
2022-09-27T16:56:03.742Z,22.18
2022-09-27T17:00:55.896Z,22.28
2022-09-27T17:05:48.404Z,22.35
2022-09-27T17:10:40.932Z,22.5
2022-09-27T17:15:33.465Z,22.6
2022-09-27T17:20:25.885Z,22.55
2022-09-27T17:25:18.334Z,22.68
2022-09-27T17:30:10.452Z,22.64
2022-09-27T17:35:02.986Z,22.71
2022-09-27T17:39:55.431Z,22.81
2022-09-27T17:44:47.763Z,22.7
2022-09-27T17:49:40.414Z,22.72
2022-09-27T17:54:32.798Z,22.64
2022-09-27T17:59:25.224Z,22.73
2022-09-27T18:04:17.770Z,22.66
